Time;durP1;ratioP1;P1;durP2;ratioP2;P2;SDS_P1;SDS_P2;PMS_P1;PMS_P2;Temp;Humidity;BMP_temperature;BMP_pressure;BME280_temperature;BME280_humidity;BME280_pressure;Samples;Min_cycle;Max_cycle;Signal;HPM_P1;HPM_P2
2022/08/09 00:01:57;;;;;;;1.33;1.07;;;;;;;;;;5010101;28;20030;-78
2022/08/09 00:04:26;;;;;;;1.47;1.10;;;;;;;;;;5009988;28;20092;-74
2022/08/09 00:06:54;;;;;;;2.40;1.30;;;;;;;;;;5009551;28;20033;-75
2022/08/09 00:09:22;;;;;;;1.37;1.03;;;;;;;;;;5009937;28;20061;-75
2022/08/09 00:11:55;;;;;;;0.87;0.70;;;;;;;;;;5014735;28;20057;-74
2022/08/09 00:14:23;;;;;;;1.13;0.50;;;;;;;;;;5014325;28;20042;-75
2022/08/09 00:16:52;;;;;;;1.60;0.20;;;;;;;;;;5014827;28;20050;-75
2022/08/09 00:19:26;;;;;;;0.20;0.10;;;;;;;;;;5014920;28;20029;-75
2022/08/09 00:21:53;;;;;;;1.83;0.30;;;;;;;;;;5014846;28;20072;-75
2022/08/09 00:24:21;;;;;;;0.20;0.10;;;;;;;;;;5009411;28;20420;-75
2022/08/09 00:26:47;;;;;;;1.13;0.20;;;;;;;;;;5009618;28;20491;-76
2022/08/09 00:29:14;;;;;;;0.07;0.03;;;;;;;;;;5009419;28;20401;-74
2022/08/09 00:31:41;;;;;;;0.20;0.10;;;;;;;;;;5009284;28;20414;-75
2022/08/09 00:34:07;;;;;;;0.10;0.10;;;;;;;;;;5014396;28;20381;-75
2022/08/09 00:36:35;;;;;;;0.00;0.00;;;;;;;;;;5014530;28;20033;-74
2022/08/09 00:39:02;;;;;;;0.93;0.10;;;;;;;;;;5014678;28;20029;-74
2022/08/09 00:41:28;;;;;;;0.97;0.10;;;;;;;;;;5014497;28;20473;-74
2022/08/09 00:43:55;;;;;;;0.10;0.10;;;;;;;;;;5014414;28;20026;-75
2022/08/09 00:46:22;;;;;;;0.00;0.00;;;;;;;;;;5009001;28;20026;-74
2022/08/09 00:48:48;;;;;;;0.50;0.10;;;;;;;;;;5008874;28;20018;-74
2022/08/09 00:51:16;;;;;;;0.43;0.13;;;;;;;;;;5008988;28;20385;-74
2022/08/09 00:53:44;;;;;;;0.00;0.00;;;;;;;;;;5008944;28;20022;-74
2022/08/09 00:56:10;;;;;;;0.00;0.00;;;;;;;;;;5012804;28;20473;-75
2022/08/09 00:58:37;;;;;;;0.00;0.00;;;;;;;;;;5014353;28;20026;-74
2022/08/09 01:01:09;;;;;;;0.00;0.00;;;;;;;;;;5013247;28;20053;-75
2022/08/09 01:03:39;;;;;;;0.00;0.00;;;;;;;;;;5014186;28;20022;-74
2022/08/09 01:06:26;;;;;;;0.00;0.00;;;;;;;;;;5012958;28;20022;-74
2022/08/09 01:08:53;;;;;;;0.00;0.00;;;;;;;;;;4998587;28;20065;-74
2022/08/09 01:11:35;;;;;;;0.10;0.00;;;;;;;;;;5008519;28;20080;-74
2022/08/09 01:14:09;;;;;;;0.23;0.10;;;;;;;;;;5008655;28;20038;-74
2022/08/09 01:16:39;;;;;;;0.10;0.10;;;;;;;;;;5008600;28;20033;-73
2022/08/09 01:19:27;;;;;;;0.00;0.00;;;;;;;;;;5013290;28;20105;-75
2022/08/09 01:22:08;;;;;;;0.00;0.00;;;;;;;;;;5014118;28;20048;-75
2022/08/09 01:24:44;;;;;;;0.00;0.00;;;;;;;;;;5013465;28;20033;-74
2022/08/09 01:27:15;;;;;;;0.20;0.07;;;;;;;;;;5013614;28;20026;-74
2022/08/09 01:29:44;;;;;;;1.30;0.13;;;;;;;;;;5010904;28;20455;-75
2022/08/09 01:32:13;;;;;;;1.23;0.10;;;;;;;;;;5008334;28;20018;-75
2022/08/09 01:34:42;;;;;;;0.00;0.00;;;;;;;;;;5008109;28;20041;-74
2022/08/09 01:37:10;;;;;;;0.83;0.20;;;;;;;;;;5008426;28;20032;-74
2022/08/09 01:39:39;;;;;;;0.97;0.43;;;;;;;;;;5009640;28;20025;-72
2022/08/09 01:42:07;;;;;;;1.00;0.60;;;;;;;;;;5013248;28;20026;-72
2022/08/09 01:44:34;;;;;;;0.53;0.37;;;;;;;;;;5012467;28;20052;-72
2022/08/09 01:47:02;;;;;;;0.60;0.40;;;;;;;;;;5013306;28;20514;-70
2022/08/09 01:49:30;;;;;;;2.83;0.63;;;;;;;;;;5013272;28;20033;-70
2022/08/09 01:51:58;;;;;;;1.60;0.73;;;;;;;;;;5011167;28;20512;-71
2022/08/09 01:54:40;;;;;;;9.07;1.03;;;;;;;;;;5007781;28;20108;-74
2022/08/09 01:57:11;;;;;;;2.07;0.90;;;;;;;;;;5007538;28;20033;-74
2022/08/09 01:59:40;;;;;;;2.10;0.70;;;;;;;;;;5008010;28;20034;-74
2022/08/09 02:02:08;;;;;;;0.60;0.50;;;;;;;;;;5009530;28;20032;-73
2022/08/09 02:04:36;;;;;;;0.60;0.50;;;;;;;;;;5013518;28;20025;-75
2022/08/09 02:07:10;;;;;;;4.83;1.27;;;;;;;;;;5013153;28;20029;-75
2022/08/09 02:09:41;;;;;;;2.07;1.13;;;;;;;;;;5012250;28;20042;-72
2022/08/09 02:12:10;;;;;;;0.67;0.40;;;;;;;;;;5012940;28;20018;-72
2022/08/09 02:14:38;;;;;;;1.70;1.00;;;;;;;;;;5009992;28;20038;-72
2022/08/09 02:17:06;;;;;;;1.63;0.87;;;;;;;;;;5007378;28;20022;-71
2022/08/09 02:19:33;;;;;;;8.13;1.47;;;;;;;;;;5007651;28;20084;-73
2022/08/09 02:22:03;;;;;;;5.03;1.47;;;;;;;;;;5007710;28;20468;-72
2022/08/09 02:24:34;;;;;;;1.90;1.37;;;;;;;;;;5009009;28;20413;-74
2022/08/09 02:27:03;;;;;;;3.60;2.07;;;;;;;;;;5012467;28;20084;-74
2022/08/09 02:29:32;;;;;;;1.83;1.17;;;;;;;;;;5012841;28;20061;-74
2022/08/09 02:32:05;;;;;;;1.20;0.90;;;;;;;;;;5012695;28;20100;-75
2022/08/09 02:34:33;;;;;;;1.27;0.70;;;;;;;;;;5012887;28;20101;-73
2022/08/09 02:37:02;;;;;;;1.37;0.90;;;;;;;;;;5009981;28;20142;-71
2022/08/09 02:39:38;;;;;;;1.20;0.90;;;;;;;;;;5007817;28;20041;-74
2022/08/09 02:42:06;;;;;;;1.43;0.87;;;;;;;;;;5007478;28;20122;-71
2022/08/09 02:44:36;;;;;;;3.60;1.57;;;;;;;;;;5007068;28;20045;-75
2022/08/09 02:47:08;;;;;;;2.13;1.23;;;;;;;;;;5010162;28;20022;-75
2022/08/09 02:49:38;;;;;;;4.20;1.00;;;;;;;;;;5012466;28;20031;-70
2022/08/09 02:52:05;;;;;;;15.80;1.40;;;;;;;;;;5012555;28;20036;-75
2022/08/09 02:54:33;;;;;;;13.97;1.40;;;;;;;;;;5012605;28;20045;-74
2022/08/09 02:57:01;;;;;;;2.00;1.20;;;;;;;;;;5012483;28;20034;-73
2022/08/09 02:59:29;;;;;;;10.73;1.73;;;;;;;;;;5009277;28;20030;-75
2022/08/09 03:01:58;;;;;;;3.43;1.50;;;;;;;;;;5007006;28;20029;-74
2022/08/09 03:04:25;;;;;;;1.73;0.93;;;;;;;;;;5007362;28;20022;-73
2022/08/09 03:06:52;;;;;;;1.40;0.90;;;;;;;;;;5007011;28;20022;-75
2022/08/09 03:09:20;;;;;;;3.17;1.40;;;;;;;;;;5009740;28;20030;-74
2022/08/09 03:11:47;;;;;;;2.80;1.33;;;;;;;;;;5012490;28;20030;-75
2022/08/09 03:14:15;;;;;;;0.60;0.53;;;;;;;;;;5012447;28;20083;-76
2022/08/09 03:16:42;;;;;;;1.73;0.73;;;;;;;;;;5012128;28;20530;-71
2022/08/09 03:19:09;;;;;;;6.97;1.57;;;;;;;;;;5012256;28;20060;-69
2022/08/09 03:21:37;;;;;;;3.50;1.17;;;;;;;;;;5009574;28;20058;-77
2022/08/09 03:24:04;;;;;;;0.97;0.60;;;;;;;;;;5006943;28;20060;-74
2022/08/09 03:26:31;;;;;;;3.40;1.20;;;;;;;;;;5007273;28;20101;-74
2022/08/09 03:28:58;;;;;;;1.20;0.87;;;;;;;;;;5008706;28;20026;-74
2022/08/09 03:31:25;;;;;;;4.00;1.20;;;;;;;;;;5012657;28;20376;-76
2022/08/09 03:33:53;;;;;;;1.43;0.83;;;;;;;;;;5015860;28;20372;-74
2022/08/09 03:36:20;;;;;;;1.97;1.10;;;;;;;;;;5015863;28;20499;-74
2022/08/09 03:38:46;;;;;;;0.87;0.63;;;;;;;;;;5015404;28;20125;-74
2022/08/09 03:41:15;;;;;;;1.40;0.77;;;;;;;;;;5015766;28;20098;-75
2022/08/09 03:43:42;;;;;;;2.37;1.30;;;;;;;;;;5013755;28;20112;-76
2022/08/09 03:46:09;;;;;;;1.37;0.87;;;;;;;;;;5010856;28;20022;-76
2022/08/09 03:48:36;;;;;;;1.70;1.00;;;;;;;;;;5010605;28;20510;-75
2022/08/09 03:51:06;;;;;;;2.03;1.00;;;;;;;;;;5010156;28;20038;-74
2022/08/09 03:53:34;;;;;;;1.70;1.07;;;;;;;;;;5011890;28;20033;-72
2022/08/09 03:56:01;;;;;;;2.07;0.77;;;;;;;;;;5014924;28;20018;-73
2022/08/09 03:58:28;;;;;;;0.93;0.40;;;;;;;;;;5015535;28;20025;-72
2022/08/09 04:00:55;;;;;;;2.13;0.90;;;;;;;;;;5015046;28;20022;-72
2022/08/09 04:03:22;;;;;;;1.20;0.67;;;;;;;;;;5015301;28;20018;-75
2022/08/09 04:05:48;;;;;;;1.10;0.57;;;;;;;;;;5013713;28;20053;-75
2022/08/09 04:08:15;;;;;;;2.40;1.33;;;;;;;;;;5010393;28;20473;-74
2022/08/09 04:10:42;;;;;;;1.60;0.90;;;;;;;;;;4990757;28;20109;-71
2022/08/09 04:13:09;;;;;;;0.97;0.77;;;;;;;;;;4990358;28;20034;-74
2022/08/09 04:15:37;;;;;;;1.00;0.60;;;;;;;;;;4991304;28;20022;-72
2022/08/09 04:18:04;;;;;;;1.87;0.97;;;;;;;;;;4995404;28;20049;-75
2022/08/09 04:20:31;;;;;;;1.07;0.80;;;;;;;;;;4996933;28;20026;-76
2022/08/09 04:22:58;;;;;;;0.87;0.53;;;;;;;;;;5013816;28;20030;-73
2022/08/09 04:25:25;;;;;;;1.30;0.67;;;;;;;;;;5014060;28;20018;-73
2022/08/09 04:27:51;;;;;;;0.50;0.40;;;;;;;;;;5013307;28;20748;-75
2022/08/09 04:30:19;;;;;;;3.33;0.80;;;;;;;;;;5009166;28;20539;-73
2022/08/09 04:32:46;;;;;;;1.60;0.70;;;;;;;;;;5009480;28;20033;-73
2022/08/09 04:35:13;;;;;;;4.23;0.97;;;;;;;;;;5009306;28;20099;-74
2022/08/09 04:37:39;;;;;;;1.70;1.20;;;;;;;;;;5010196;28;20120;-74
2022/08/09 04:40:07;;;;;;;3.20;1.37;;;;;;;;;;5014203;28;20504;-74
2022/08/09 04:42:34;;;;;;;2.27;1.03;;;;;;;;;;5014563;28;20022;-74
2022/08/09 04:45:01;;;;;;;2.00;0.93;;;;;;;;;;5014210;28;20021;-74
2022/08/09 04:47:28;;;;;;;3.13;1.23;;;;;;;;;;5014348;28;20014;-74
2022/08/09 04:49:55;;;;;;;1.60;1.10;;;;;;;;;;5013495;28;20073;-73
2022/08/09 04:52:23;;;;;;;0.90;0.70;;;;;;;;;;5009358;28;20029;-74
2022/08/09 04:54:53;;;;;;;1.70;1.10;;;;;;;;;;5009481;28;20168;-74
2022/08/09 04:57:20;;;;;;;1.13;0.93;;;;;;;;;;5009358;28;20065;-74
2022/08/09 04:59:47;;;;;;;1.50;0.93;;;;;;;;;;5009217;28;20058;-75
2022/08/09 05:02:13;;;;;;;3.27;1.50;;;;;;;;;;5014270;28;20026;-74
2022/08/09 05:04:41;;;;;;;1.80;1.00;;;;;;;;;;5014238;28;20033;-74
2022/08/09 05:07:08;;;;;;;4.20;1.53;;;;;;;;;;5014139;28;20112;-74
2022/08/09 05:09:35;;;;;;;3.77;1.20;;;;;;;;;;5013832;28;20033;-75
2022/08/09 05:12:02;;;;;;;1.53;0.90;;;;;;;;;;5013245;28;20066;-74
2022/08/09 05:14:30;;;;;;;2.17;1.37;;;;;;;;;;5009064;28;20503;-74
2022/08/09 05:16:58;;;;;;;1.13;1.00;;;;;;;;;;5008681;28;20061;-74
2022/08/09 05:19:28;;;;;;;1.67;0.80;;;;;;;;;;5009046;28;20088;-74
2022/08/09 05:21:55;;;;;;;0.97;0.70;;;;;;;;;;5008902;28;20052;-74
2022/08/09 05:24:22;;;;;;;6.30;1.00;;;;;;;;;;5013415;28;20105;-74
2022/08/09 05:26:49;;;;;;;1.77;1.00;;;;;;;;;;5013888;28;20018;-74
2022/08/09 05:29:18;;;;;;;1.57;0.83;;;;;;;;;;5013644;28;20057;-74
2022/08/09 05:31:46;;;;;;;1.23;0.77;;;;;;;;;;5013134;28;20034;-73
2022/08/09 05:34:14;;;;;;;3.53;1.17;;;;;;;;;;5013760;28;20030;-75
2022/08/09 05:36:41;;;;;;;3.30;1.03;;;;;;;;;;5008445;28;20113;-74
2022/08/09 05:39:08;;;;;;;2.70;0.97;;;;;;;;;;5008570;28;20037;-74
2022/08/09 05:41:35;;;;;;;0.87;0.57;;;;;;;;;;5008129;28;20057;-75
2022/08/09 05:44:01;;;;;;;1.10;0.67;;;;;;;;;;5008265;28;20034;-73
2022/08/09 05:46:28;;;;;;;0.50;0.50;;;;;;;;;;5012949;28;20029;-74
2022/08/09 05:48:55;;;;;;;4.27;1.20;;;;;;;;;;5013039;28;20026;-75
2022/08/09 05:51:22;;;;;;;0.37;0.37;;;;;;;;;;5012902;28;20080;-72
2022/08/09 05:53:49;;;;;;;0.40;0.40;;;;;;;;;;5013356;28;20032;-71
2022/08/09 05:56:17;;;;;;;0.70;0.50;;;;;;;;;;5013158;28;20064;-72
2022/08/09 05:58:43;;;;;;;0.70;0.57;;;;;;;;;;5008036;28;20030;-72
2022/08/09 06:01:10;;;;;;;4.87;1.17;;;;;;;;;;5007790;28;20053;-73
2022/08/09 06:03:37;;;;;;;2.40;0.60;;;;;;;;;;5008110;28;20025;-73
2022/08/09 06:06:04;;;;;;;0.53;0.40;;;;;;;;;;5007755;28;20018;-70
2022/08/09 06:08:31;;;;;;;0.53;0.43;;;;;;;;;;5011484;28;20030;-74
2022/08/09 06:10:57;;;;;;;0.77;0.43;;;;;;;;;;5012867;28;20091;-74
2022/08/09 06:13:24;;;;;;;1.40;0.67;;;;;;;;;;5012825;28;20022;-74
2022/08/09 06:15:51;;;;;;;0.90;0.57;;;;;;;;;;5012494;28;20463;-74
2022/08/09 06:18:18;;;;;;;0.57;0.40;;;;;;;;;;5012938;28;20380;-74
2022/08/09 06:20:44;;;;;;;1.10;0.90;;;;;;;;;;5008261;28;20049;-74
2022/08/09 06:23:11;;;;;;;1.80;0.77;;;;;;;;;;5007440;28;20025;-74
2022/08/09 06:25:38;;;;;;;0.70;0.47;;;;;;;;;;5007651;28;20585;-74
2022/08/09 06:28:06;;;;;;;1.43;0.60;;;;;;;;;;5007377;28;20049;-74
2022/08/09 06:30:33;;;;;;;2.57;1.23;;;;;;;;;;5010773;28;20036;-74
2022/08/09 06:33:00;;;;;;;1.10;0.50;;;;;;;;;;5012568;28;20380;-74
2022/08/09 06:35:27;;;;;;;0.70;0.50;;;;;;;;;;5012594;28;20050;-74
2022/08/09 06:37:53;;;;;;;1.53;0.57;;;;;;;;;;5011877;28;20029;-74
2022/08/09 06:40:20;;;;;;;1.33;0.83;;;;;;;;;;5012720;28;20029;-74
2022/08/09 06:42:46;;;;;;;0.67;0.40;;;;;;;;;;5008991;28;20048;-74
2022/08/09 06:45:13;;;;;;;2.37;0.83;;;;;;;;;;5007264;28;20434;-74
2022/08/09 06:47:40;;;;;;;0.73;0.70;;;;;;;;;;5007231;28;20373;-74
2022/08/09 06:50:07;;;;;;;2.13;1.00;;;;;;;;;;5007183;28;20097;-74
2022/08/09 06:52:34;;;;;;;0.67;0.47;;;;;;;;;;5009995;28;20037;-74
2022/08/09 06:55:00;;;;;;;0.83;0.63;;;;;;;;;;5011696;28;20018;-74
2022/08/09 06:57:27;;;;;;;1.20;0.93;;;;;;;;;;5012478;28;20080;-74
2022/08/09 06:59:54;;;;;;;0.50;0.50;;;;;;;;;;5012492;28;20060;-74
2022/08/09 07:02:21;;;;;;;1.13;0.70;;;;;;;;;;5012375;28;20022;-74
2022/08/09 07:04:47;;;;;;;0.63;0.57;;;;;;;;;;5012141;28;20366;-74
2022/08/09 07:07:14;;;;;;;0.73;0.60;;;;;;;;;;5010910;28;20372;-74
2022/08/09 07:09:43;;;;;;;2.13;1.20;;;;;;;;;;5010987;28;20045;-74
2022/08/09 07:12:11;;;;;;;1.77;0.67;;;;;;;;;;5010306;28;20384;-74
2022/08/09 07:14:37;;;;;;;1.97;0.60;;;;;;;;;;5013370;28;20026;-74
2022/08/09 07:17:04;;;;;;;1.00;0.77;;;;;;;;;;5016021;28;20029;-74
2022/08/09 07:19:31;;;;;;;0.40;0.30;;;;;;;;;;5016085;28;20504;-74
2022/08/09 07:21:57;;;;;;;0.83;0.60;;;;;;;;;;5015906;28;20430;-74
2022/08/09 07:24:24;;;;;;;1.33;0.60;;;;;;;;;;5015772;28;20381;-74
2022/08/09 07:26:51;;;;;;;1.03;0.53;;;;;;;;;;5013074;28;20022;-74
2022/08/09 07:29:18;;;;;;;2.47;0.73;;;;;;;;;;5010315;28;20057;-74
2022/08/09 07:31:44;;;;;;;1.17;0.57;;;;;;;;;;5010421;28;20044;-73
2022/08/09 07:34:11;;;;;;;2.00;1.10;;;;;;;;;;5010691;28;20022;-74
2022/08/09 07:36:39;;;;;;;1.17;0.80;;;;;;;;;;5012537;28;20039;-74
2022/08/09 07:39:06;;;;;;;0.73;0.30;;;;;;;;;;5015688;28;20026;-73
2022/08/09 07:41:33;;;;;;;1.53;0.93;;;;;;;;;;5015506;28;20400;-75
2022/08/09 07:44:00;;;;;;;1.47;0.77;;;;;;;;;;5015608;28;20038;-74
2022/08/09 07:46:27;;;;;;;0.43;0.30;;;;;;;;;;5015331;28;20084;-74
2022/08/09 07:48:53;;;;;;;0.40;0.30;;;;;;;;;;5013237;28;20046;-74
2022/08/09 07:51:20;;;;;;;0.80;0.70;;;;;;;;;;5009821;28;20061;-73
2022/08/09 07:53:47;;;;;;;0.60;0.50;;;;;;;;;;5010230;28;20030;-73
2022/08/09 07:56:14;;;;;;;1.43;0.70;;;;;;;;;;5010150;28;20022;-74
2022/08/09 07:58:40;;;;;;;1.07;0.77;;;;;;;;;;5011598;28;20054;-73
2022/08/09 08:01:07;;;;;;;2.90;1.07;;;;;;;;;;5015238;28;20029;-74
2022/08/09 08:03:34;;;;;;;0.40;0.40;;;;;;;;;;5015035;28;20018;-74
2022/08/09 08:06:01;;;;;;;0.40;0.30;;;;;;;;;;5015242;28;20033;-74
2022/08/09 08:08:27;;;;;;;1.27;0.87;;;;;;;;;;5014731;28;20018;-73
2022/08/09 08:10:54;;;;;;;1.13;0.60;;;;;;;;;;5013447;28;20175;-74
2022/08/09 08:13:20;;;;;;;1.13;0.77;;;;;;;;;;5009833;28;20033;-73
2022/08/09 08:15:47;;;;;;;0.50;0.40;;;;;;;;;;5009044;28;20048;-74
2022/08/09 08:18:14;;;;;;;0.60;0.50;;;;;;;;;;5009392;28;20061;-74
2022/08/09 08:20:40;;;;;;;0.93;0.67;;;;;;;;;;5010056;28;20030;-74
2022/08/09 08:23:07;;;;;;;1.43;0.80;;;;;;;;;;5015008;28;20436;-74
2022/08/09 08:25:34;;;;;;;0.63;0.50;;;;;;;;;;5014866;28;20022;-73
2022/08/09 08:28:01;;;;;;;2.97;0.83;;;;;;;;;;5014520;28;20026;-74
2022/08/09 08:30:28;;;;;;;1.70;0.70;;;;;;;;;;5014576;28;20354;-73
2022/08/09 08:32:55;;;;;;;0.67;0.43;;;;;;;;;;5013383;28;20026;-74
2022/08/09 08:35:22;;;;;;;15.60;0.80;;;;;;;;;;5009066;28;20028;-74
2022/08/09 08:37:50;;;;;;;0.80;0.40;;;;;;;;;;5009341;28;20091;-73
2022/08/09 08:40:17;;;;;;;1.20;0.83;;;;;;;;;;5009306;28;20088;-74
2022/08/09 08:42:44;;;;;;;0.90;0.70;;;;;;;;;;5009499;28;20034;-73
2022/08/09 08:45:11;;;;;;;0.60;0.47;;;;;;;;;;5014430;28;20496;-74
2022/08/09 08:47:41;;;;;;;1.03;0.77;;;;;;;;;;5014368;28;20022;-74
2022/08/09 08:50:08;;;;;;;1.43;0.87;;;;;;;;;;5013254;28;20029;-74
2022/08/09 08:52:35;;;;;;;1.27;0.70;;;;;;;;;;5014440;28;20096;-74
2022/08/09 08:55:02;;;;;;;5.70;0.57;;;;;;;;;;5013385;28;20029;-73
2022/08/09 08:57:28;;;;;;;0.53;0.40;;;;;;;;;;5008937;28;20030;-73
2022/08/09 08:59:55;;;;;;;1.23;0.60;;;;;;;;;;5008955;28;20108;-73
2022/08/09 09:02:25;;;;;;;0.73;0.50;;;;;;;;;;5008101;28;20030;-73
2022/08/09 09:04:52;;;;;;;0.93;0.63;;;;;;;;;;5008746;28;20026;-74
2022/08/09 09:07:19;;;;;;;0.80;0.60;;;;;;;;;;5014001;28;20084;-74
2022/08/09 09:09:50;;;;;;;1.30;0.60;;;;;;;;;;5013840;28;20038;-74
2022/08/09 09:12:17;;;;;;;1.57;0.93;;;;;;;;;;5012638;28;20421;-74
2022/08/09 09:14:45;;;;;;;0.47;0.47;;;;;;;;;;5013751;28;20022;-74
2022/08/09 09:17:12;;;;;;;0.30;0.30;;;;;;;;;;5013315;28;20045;-73
2022/08/09 09:19:39;;;;;;;1.00;0.60;;;;;;;;;;5008574;28;20021;-74
2022/08/09 09:22:06;;;;;;;0.57;0.53;;;;;;;;;;5008327;28;20030;-74
2022/08/09 09:24:34;;;;;;;0.87;0.70;;;;;;;;;;5008684;28;20036;-74
2022/08/09 09:27:01;;;;;;;1.43;0.70;;;;;;;;;;5007497;28;20022;-73
2022/08/09 09:29:29;;;;;;;0.93;0.63;;;;;;;;;;5013498;28;20380;-73
2022/08/09 09:31:55;;;;;;;0.80;0.53;;;;;;;;;;5013313;28;20083;-74
2022/08/09 09:34:22;;;;;;;0.73;0.47;;;;;;;;;;5013549;28;20033;-74
2022/08/09 09:36:49;;;;;;;0.70;0.57;;;;;;;;;;5013274;28;20465;-74
2022/08/09 09:39:17;;;;;;;0.80;0.70;;;;;;;;;;5013159;28;20380;-74
2022/08/09 09:41:44;;;;;;;1.03;0.77;;;;;;;;;;5008048;28;20026;-74
2022/08/09 09:44:12;;;;;;;0.67;0.47;;;;;;;;;;5008387;28;20030;-73
2022/08/09 09:46:40;;;;;;;0.50;0.40;;;;;;;;;;5008159;28;20018;-74
2022/08/09 09:49:09;;;;;;;0.47;0.47;;;;;;;;;;5007785;28;20026;-74
2022/08/09 09:51:36;;;;;;;0.53;0.50;;;;;;;;;;4992884;28;20089;-74
2022/08/09 09:54:21;;;;;;;3.57;0.90;;;;;;;;;;4993604;28;20026;-74
2022/08/09 09:56:49;;;;;;;0.40;0.20;;;;;;;;;;4993398;28;20101;-74
2022/08/09 09:59:21;;;;;;;1.17;0.60;;;;;;;;;;5007930;28;20469;-74
2022/08/09 10:01:58;;;;;;;0.90;0.60;;;;;;;;;;5012031;28;20026;-74
2022/08/09 10:04:25;;;;;;;0.67;0.50;;;;;;;;;;5007932;28;20504;-74
2022/08/09 10:06:51;;;;;;;0.50;0.50;;;;;;;;;;5007805;28;20188;-74
2022/08/09 10:09:18;;;;;;;0.50;0.47;;;;;;;;;;5007389;28;20057;-73
2022/08/09 10:11:45;;;;;;;1.60;1.10;;;;;;;;;;5008074;28;20026;-74
2022/08/09 10:14:24;;;;;;;0.50;0.47;;;;;;;;;;5012704;28;20025;-74
2022/08/09 10:16:50;;;;;;;1.30;0.70;;;;;;;;;;4993332;28;20777;-74
2022/08/09 10:19:17;;;;;;;1.10;0.80;;;;;;;;;;4993242;28;20493;-74
2022/08/09 10:21:46;;;;;;;0.97;0.80;;;;;;;;;;4993161;28;20026;-74
2022/08/09 10:24:14;;;;;;;0.60;0.60;;;;;;;;;;4992050;28;20033;-74
2022/08/09 10:26:41;;;;;;;0.60;0.40;;;;;;;;;;4987837;28;20126;-74
2022/08/09 10:29:07;;;;;;;0.50;0.40;;;;;;;;;;4987530;28;20041;-74
2022/08/09 10:31:34;;;;;;;1.13;0.93;;;;;;;;;;4987813;28;20018;-74
2022/08/09 10:34:01;;;;;;;1.23;1.10;;;;;;;;;;4993252;28;20117;-74
2022/08/09 10:36:27;;;;;;;2.57;1.67;;;;;;;;;;5012609;28;20026;-73
2022/08/09 10:38:54;;;;;;;0.83;0.60;;;;;;;;;;5012354;28;20022;-74
2022/08/09 10:41:21;;;;;;;1.60;0.73;;;;;;;;;;5011299;28;20481;-74
2022/08/09 10:43:48;;;;;;;1.47;0.80;;;;;;;;;;5012428;28;20069;-74
2022/08/09 10:46:41;;;;;;;4.67;1.60;;;;;;;;;;5011775;28;20032;-74
2022/08/09 10:49:14;;;;;;;1.60;0.70;;;;;;;;;;4984016;28;20489;-74
2022/08/09 10:51:55;;;;;;;3.70;0.70;;;;;;;;;;5007291;28;20018;-74
2022/08/09 10:54:25;;;;;;;2.03;1.27;;;;;;;;;;5006884;28;20463;-74
2022/08/09 10:57:12;;;;;;;1.30;0.90;;;;;;;;;;5009115;28;20022;-74
2022/08/09 10:59:41;;;;;;;2.10;1.23;;;;;;;;;;5012516;28;20512;-74
2022/08/09 11:02:13;;;;;;;6.60;0.93;;;;;;;;;;5011671;28;20026;-74
2022/08/09 11:04:40;;;;;;;3.57;1.17;;;;;;;;;;5012361;28;20786;-74
2022/08/09 11:07:06;;;;;;;2.30;1.67;;;;;;;;;;5012343;28;20072;-74
2022/08/09 11:09:39;;;;;;;5.00;1.57;;;;;;;;;;5009426;28;20120;-74
2022/08/09 11:12:14;;;;;;;5.67;1.77;;;;;;;;;;5007228;28;20500;-74
2022/08/09 11:14:43;;;;;;;4.60;1.92;;;;;;;;;;5006714;28;20022;-73
2022/08/09 11:17:13;;;;;;;1.20;0.80;;;;;;;;;;5006913;28;20105;-74
2022/08/09 11:19:58;;;;;;;1.17;1.07;;;;;;;;;;5008154;28;20383;-74
2022/08/09 11:22:43;;;;;;;2.28;1.77;;;;;;;;;;5012112;28;20026;-74
2022/08/09 11:25:10;;;;;;;1.33;1.10;;;;;;;;;;5012180;28;20546;-74
2022/08/09 11:27:40;;;;;;;1.77;1.40;;;;;;;;;;5012224;28;20029;-74
2022/08/09 11:30:08;;;;;;;2.50;1.47;;;;;;;;;;5012043;28;20034;-73
2022/08/09 11:32:45;;;;;;;1.17;0.90;;;;;;;;;;5007347;28;20372;-74
2022/08/09 11:35:19;;;;;;;3.13;2.03;;;;;;;;;;5006897;28;20026;-74
2022/08/09 11:37:47;;;;;;;5.17;2.73;;;;;;;;;;5006467;28;20040;-73
2022/08/09 11:40:15;;;;;;;4.10;3.03;;;;;;;;;;5006569;28;20104;-74
2022/08/09 11:42:45;;;;;;;3.73;3.00;;;;;;;;;;5011564;28;20523;-74
2022/08/09 11:45:47;;;;;;;5.43;2.77;;;;;;;;;;5012072;28;20018;-74
2022/08/09 11:48:14;;;;;;;2.63;1.87;;;;;;;;;;4951451;28;20106;-74
2022/08/09 11:51:01;;;;;;;2.00;1.50;;;;;;;;;;5002478;28;20054;-74
2022/08/09 11:53:27;;;;;;;2.07;1.50;;;;;;;;;;5013219;28;20030;-74
2022/08/09 11:55:58;;;;;;;1.93;1.57;;;;;;;;;;5009660;28;20477;-74
2022/08/09 11:58:28;;;;;;;3.23;2.07;;;;;;;;;;5010170;28;20093;-73
2022/08/09 12:00:59;;;;;;;2.17;1.57;;;;;;;;;;5010075;28;20538;-73
2022/08/09 12:03:26;;;;;;;2.00;1.40;;;;;;;;;;5011700;28;20080;-74
2022/08/09 12:05:54;;;;;;;1.23;1.13;;;;;;;;;;5014939;28;20432;-74
2022/08/09 12:08:22;;;;;;;2.77;1.53;;;;;;;;;;5015213;28;20075;-74
2022/08/09 12:10:55;;;;;;;5.73;2.13;;;;;;;;;;5014959;28;20485;-74
2022/08/09 12:13:38;;;;;;;5.03;2.13;;;;;;;;;;5014977;28;20104;-74
2022/08/09 12:16:06;;;;;;;3.20;1.33;;;;;;;;;;5011673;28;20026;-74
2022/08/09 12:18:34;;;;;;;9.27;5.77;;;;;;;;;;5009774;28;20108;-73
2022/08/09 12:21:01;;;;;;;5.53;4.30;;;;;;;;;;5009520;28;20099;-74
2022/08/09 12:23:28;;;;;;;11.77;8.27;;;;;;;;;;5009558;28;20038;-74
2022/08/09 12:25:55;;;;;;;9.47;6.60;;;;;;;;;;5011618;28;20104;-74
2022/08/09 12:28:23;;;;;;;6.13;4.10;;;;;;;;;;5014631;28;20358;-73
2022/08/09 12:30:50;;;;;;;5.60;3.93;;;;;;;;;;5013874;28;20049;-74
2022/08/09 12:33:18;;;;;;;9.83;5.13;;;;;;;;;;5014751;28;20026;-74
2022/08/09 12:35:44;;;;;;;7.00;4.03;;;;;;;;;;5014566;28;20377;-74
2022/08/09 12:38:18;;;;;;;15.17;6.33;;;;;;;;;;5011987;28;20521;-74
2022/08/09 12:40:49;;;;;;;3.97;2.90;;;;;;;;;;5009409;28;20018;-74
2022/08/09 12:43:18;;;;;;;4.50;3.17;;;;;;;;;;5009240;28;20042;-74
2022/08/09 12:45:45;;;;;;;5.87;3.90;;;;;;;;;;5008873;28;20381;-74
2022/08/09 12:48:13;;;;;;;5.37;2.33;;;;;;;;;;5011481;28;20084;-74
2022/08/09 12:50:40;;;;;;;1.80;1.50;;;;;;;;;;5014289;28;20046;-74
2022/08/09 12:53:23;;;;;;;5.53;2.17;;;;;;;;;;5014211;28;20033;-74
2022/08/09 12:55:49;;;;;;;3.50;2.30;;;;;;;;;;5013889;28;20100;-74
2022/08/09 12:58:16;;;;;;;5.00;3.10;;;;;;;;;;5014353;28;20116;-74
2022/08/09 13:00:46;;;;;;;2.63;1.90;;;;;;;;;;5010858;28;20022;-69
2022/08/09 13:03:12;;;;;;;1.27;1.10;;;;;;;;;;5008736;28;20088;-69
2022/08/09 13:05:44;;;;;;;1.80;1.40;;;;;;;;;;5008877;28;20060;-69
2022/08/09 13:08:13;;;;;;;2.10;1.73;;;;;;;;;;5008715;28;20076;-69
2022/08/09 13:10:50;;;;;;;3.73;2.03;;;;;;;;;;5010848;28;20038;-69
2022/08/09 13:13:27;;;;;;;3.97;2.33;;;;;;;;;;5013380;28;20527;-69
2022/08/09 13:15:58;;;;;;;4.13;2.27;;;;;;;;;;5013963;28;20021;-69
2022/08/09 13:18:26;;;;;;;5.30;1.83;;;;;;;;;;5013923;28;20512;-69
2022/08/09 13:20:53;;;;;;;2.20;1.30;;;;;;;;;;5013338;28;20064;-69
2022/08/09 13:23:20;;;;;;;2.17;1.20;;;;;;;;;;5009681;28;20377;-69
2022/08/09 13:25:48;;;;;;;1.20;1.00;;;;;;;;;;5008305;28;20069;-69
2022/08/09 13:28:16;;;;;;;3.03;2.17;;;;;;;;;;5008242;28;20026;-69
2022/08/09 13:30:43;;;;;;;2.53;1.73;;;;;;;;;;5008506;28;20564;-71
2022/08/09 13:33:11;;;;;;;3.57;2.03;;;;;;;;;;5012020;28;20101;-70
2022/08/09 13:35:38;;;;;;;3.83;2.23;;;;;;;;;;5013169;28;20022;-71
2022/08/09 13:38:04;;;;;;;2.70;1.83;;;;;;;;;;5013390;28;20110;-70
2022/08/09 13:40:31;;;;;;;2.43;1.83;;;;;;;;;;5013418;28;20022;-70
2022/08/09 13:42:58;;;;;;;3.50;1.20;;;;;;;;;;5013530;28;20022;-70
2022/08/09 13:45:24;;;;;;;1.30;1.10;;;;;;;;;;5009584;28;20030;-70
2022/08/09 13:47:51;;;;;;;4.73;1.90;;;;;;;;;;5008035;28;20041;-70
2022/08/09 13:50:18;;;;;;;2.80;1.53;;;;;;;;;;5007701;28;20030;-71
2022/08/09 13:52:45;;;;;;;3.87;2.10;;;;;;;;;;5008051;28;20045;-71
2022/08/09 13:55:12;;;;;;;2.50;1.40;;;;;;;;;;5010881;28;20033;-71
2022/08/09 13:57:40;;;;;;;2.17;1.60;;;;;;;;;;5013233;28;20018;-70
2022/08/09 14:00:14;;;;;;;2.67;1.97;;;;;;;;;;5013116;28;20026;-71
2022/08/09 14:02:42;;;;;;;2.17;1.47;;;;;;;;;;5013167;28;20536;-71
2022/08/09 14:05:09;;;;;;;2.27;1.60;;;;;;;;;;5012577;28;20260;-71
2022/08/09 14:07:35;;;;;;;3.00;1.73;;;;;;;;;;5009054;28;20033;-71
2022/08/09 14:10:02;;;;;;;2.87;1.10;;;;;;;;;;5007646;28;20034;-71
2022/08/09 14:12:29;;;;;;;3.73;1.50;;;;;;;;;;5007023;28;20484;-71
2022/08/09 14:14:55;;;;;;;2.73;1.53;;;;;;;;;;5007785;28;20018;-71
2022/08/09 14:17:22;;;;;;;1.77;1.33;;;;;;;;;;5010375;28;20038;-71
2022/08/09 14:19:49;;;;;;;24.07;2.40;;;;;;;;;;5013088;28;20339;-71
2022/08/09 14:22:15;;;;;;;2.37;1.50;;;;;;;;;;5012454;28;20018;-70
2022/08/09 14:24:42;;;;;;;1.70;1.33;;;;;;;;;;5012502;28;20041;-70
2022/08/09 14:27:09;;;;;;;4.97;1.73;;;;;;;;;;5012841;28;20053;-70
2022/08/09 14:29:35;;;;;;;2.03;1.27;;;;;;;;;;5009482;28;20389;-71
2022/08/09 14:32:02;;;;;;;2.93;1.50;;;;;;;;;;5007524;28;20544;-71
2022/08/09 14:34:29;;;;;;;3.50;1.23;;;;;;;;;;5007693;28;20145;-71
2022/08/09 14:36:55;;;;;;;2.50;1.57;;;;;;;;;;5007340;28;20052;-71
2022/08/09 14:39:22;;;;;;;8.73;1.63;;;;;;;;;;5009841;28;20022;-71
2022/08/09 14:41:49;;;;;;;2.23;1.00;;;;;;;;;;5012095;28;20384;-71
2022/08/09 14:44:16;;;;;;;4.30;1.97;;;;;;;;;;5012927;28;20431;-71
2022/08/09 14:46:42;;;;;;;5.33;1.87;;;;;;;;;;5012311;28;20030;-71
2022/08/09 14:49:09;;;;;;;4.13;1.60;;;;;;;;;;5012590;28;20035;-71
2022/08/09 14:51:36;;;;;;;2.30;1.43;;;;;;;;;;5009861;28;20045;-71